createdAt,value
2018-07-26T00:01:58.168Z,84.80
2018-07-26T00:04:39.675Z,84.80
2018-07-26T00:07:21.481Z,84.80
2018-07-26T00:10:04.304Z,84.80
2018-07-26T00:12:45.902Z,84.80
2018-07-26T00:15:27.295Z,84.70
2018-07-26T00:18:08.952Z,84.80
2018-07-26T00:20:51.616Z,84.70
2018-07-26T00:23:34.276Z,84.70
2018-07-26T00:26:15.669Z,84.70
2018-07-26T00:28:57.163Z,84.70
2018-07-26T00:31:38.738Z,84.70
2018-07-26T00:34:20.512Z,84.60
2018-07-26T00:37:02.123Z,84.60
2018-07-26T00:39:44.886Z,84.60
2018-07-26T00:42:26.215Z,84.60
2018-07-26T00:45:08.643Z,84.60
2018-07-26T00:47:50.241Z,84.60
2018-07-26T00:50:31.618Z,84.50
2018-07-26T00:53:16.833Z,84.50
2018-07-26T00:58:40.928Z,85.80
2018-07-26T01:01:23.037Z,84.60
2018-07-26T01:04:05.091Z,84.50
2018-07-26T01:06:46.616Z,84.50
2018-07-26T01:09:28.604Z,84.60
2018-07-26T01:12:10.090Z,84.60
2018-07-26T01:14:52.072Z,84.00
2018-07-26T01:17:34.176Z,84.40
2018-07-26T01:20:15.571Z,84.40
2018-07-26T01:25:39.321Z,84.50
2018-07-26T01:28:21.597Z,84.60
2018-07-26T01:31:04.120Z,84.40
2018-07-26T01:33:46.747Z,84.50
2018-07-26T01:36:28.113Z,84.40
2018-07-26T01:39:10.486Z,84.80
2018-07-26T01:41:52.750Z,84.40
2018-07-26T01:44:36.932Z,84.90
2018-07-26T01:47:18.531Z,84.90
2018-07-26T01:49:59.983Z,85.20
2018-07-26T01:52:41.546Z,85.60
2018-07-26T01:55:22.907Z,85.60
2018-07-26T01:58:06.943Z,84.90
2018-07-26T02:04:10.506Z,86.40
2018-07-26T02:06:53.702Z,86.90
2018-07-26T02:09:35.227Z,87.10
2018-07-26T02:12:16.677Z,87.10
2018-07-26T02:14:58.917Z,87.10
2018-07-26T02:17:40.431Z,87.40
2018-07-26T02:20:22.479Z,87.50
2018-07-26T02:23:05.415Z,87.50
2018-07-26T02:25:47.490Z,87.60
2018-07-26T02:28:29.012Z,87.60
2018-07-26T02:31:11.702Z,87.90
2018-07-26T02:33:54.265Z,87.90
2018-07-26T02:36:35.650Z,88.10
2018-07-26T02:39:17.433Z,88.00
2018-07-26T02:41:58.786Z,88.30
2018-07-26T02:44:40.613Z,88.50
2018-07-26T02:47:23.142Z,88.80
2018-07-26T02:50:04.552Z,89.20
2018-07-26T02:52:46.011Z,89.60
2018-07-26T02:55:27.992Z,89.40
2018-07-26T02:58:09.459Z,89.30
2018-07-26T03:00:51.591Z,88.90
2018-07-26T03:03:33.857Z,87.90
2018-07-26T03:06:16.310Z,87.90
2018-07-26T03:08:57.639Z,88.20
2018-07-26T03:11:39.044Z,88.90
2018-07-26T03:14:22.532Z,89.30
2018-07-26T03:17:04.226Z,89.50
2018-07-26T03:19:45.757Z,89.30
2018-07-26T03:22:28.080Z,89.30
2018-07-26T03:27:51.596Z,89.80
2018-07-26T03:30:33.084Z,89.90
2018-07-26T03:33:14.450Z,89.90
2018-07-26T03:35:56.446Z,89.90
2018-07-26T03:38:41.348Z,90.00
2018-07-26T03:41:24.367Z,90.20
2018-07-26T03:44:06.380Z,90.00
2018-07-26T03:46:47.891Z,90.00
2018-07-26T03:49:29.619Z,90.00
2018-07-26T03:52:11.008Z,90.00
2018-07-26T03:54:54.476Z,90.00
2018-07-26T03:57:40.943Z,90.00
2018-07-26T04:00:24.426Z,90.00
2018-07-26T04:03:06.539Z,89.90
2018-07-26T04:05:48.751Z,90.00
2018-07-26T04:08:31.186Z,89.90
2018-07-26T04:11:13.491Z,90.00
2018-07-26T04:13:56.116Z,90.00
2018-07-26T04:16:37.552Z,90.10
2018-07-26T04:19:18.908Z,90.00
2018-07-26T04:22:01.412Z,89.70
2018-07-26T04:24:42.811Z,89.90
2018-07-26T04:27:25.408Z,89.70
2018-07-26T04:30:11.144Z,89.80
2018-07-26T04:32:54.473Z,89.70
2018-07-26T04:35:36.292Z,90.30
2018-07-26T04:38:17.876Z,89.70
2018-07-26T04:41:00.788Z,89.60
2018-07-26T04:43:42.267Z,89.80
2018-07-26T04:46:25.636Z,89.50
2018-07-26T04:49:07.147Z,89.40
2018-07-26T04:51:48.969Z,89.60
2018-07-26T04:54:32.073Z,89.50
2018-07-26T04:57:13.330Z,89.50
2018-07-26T04:59:56.016Z,89.60
2018-07-26T05:02:38.380Z,89.50
2018-07-26T05:05:19.816Z,89.60
2018-07-26T05:08:01.750Z,89.80
2018-07-26T05:10:43.143Z,89.30
2018-07-26T05:16:06.892Z,88.90
2018-07-26T05:18:48.330Z,88.90
2018-07-26T05:21:30.128Z,88.90
2018-07-26T05:24:11.775Z,88.50
2018-07-26T05:26:55.636Z,88.50
2018-07-26T05:32:19.206Z,87.80
2018-07-26T05:35:01.679Z,88.00
2018-07-26T05:37:42.930Z,87.00
2018-07-26T05:40:25.748Z,86.50
2018-07-26T05:43:07.562Z,86.40
2018-07-26T05:45:49.151Z,86.70
2018-07-26T05:48:32.288Z,85.70
2018-07-26T05:51:13.771Z,85.70
2018-07-26T05:53:56.128Z,85.70
2018-07-26T05:56:38.675Z,85.70
2018-07-26T05:59:20.035Z,85.70
2018-07-26T06:02:01.468Z,85.70
2018-07-26T06:04:42.885Z,85.80
2018-07-26T06:07:25.601Z,85.80
2018-07-26T06:10:08.523Z,85.90
2018-07-26T06:12:50.119Z,85.90
2018-07-26T06:15:32.636Z,85.90
2018-07-26T06:18:14.038Z,86.00
2018-07-26T06:20:56.967Z,86.10
2018-07-26T06:26:19.604Z,86.20
2018-07-26T06:29:01.652Z,86.20
2018-07-26T06:31:43.006Z,86.40
2018-07-26T06:34:25.907Z,86.40
2018-07-26T06:37:07.635Z,86.50
2018-07-26T06:39:49.083Z,86.50
2018-07-26T06:42:31.654Z,86.60
2018-07-26T06:45:13.017Z,86.60
2018-07-26T06:47:55.628Z,86.70
2018-07-26T06:50:37.211Z,87.50
2018-07-26T06:53:18.735Z,86.80
2018-07-26T06:56:00.208Z,86.90
2018-07-26T06:58:41.753Z,86.10
2018-07-26T07:01:25.492Z,85.60
2018-07-26T07:04:08.040Z,85.70
2018-07-26T07:06:50.272Z,86.10
2018-07-26T07:09:31.873Z,85.70
2018-07-26T07:12:13.705Z,85.70
2018-07-26T07:17:39.128Z,83.50
2018-07-26T07:23:03.007Z,82.30
2018-07-26T07:25:44.780Z,81.80
2018-07-26T07:28:27.219Z,82.10
2018-07-26T07:31:08.692Z,81.70
2018-07-26T07:33:50.300Z,82.40
2018-07-26T07:36:31.940Z,81.70
2018-07-26T07:39:14.816Z,82.10
2018-07-26T07:41:57.227Z,81.50
2018-07-26T07:44:38.570Z,81.10
2018-07-26T07:47:21.510Z,80.80
2018-07-26T07:50:03.033Z,80.90
2018-07-26T07:52:44.452Z,81.30
2018-07-26T07:55:26.832Z,80.40
2018-07-26T07:58:08.299Z,80.00
2018-07-26T08:00:49.999Z,78.90
2018-07-26T08:03:31.674Z,77.90
2018-07-26T08:06:13.169Z,77.10
2018-07-26T08:08:55.341Z,77.00
2018-07-26T08:11:38.336Z,77.40
2018-07-26T08:14:19.705Z,78.80
2018-07-26T08:17:02.405Z,79.10
2018-07-26T08:19:43.862Z,78.80
2018-07-26T08:22:25.961Z,78.40
2018-07-26T08:25:08.573Z,77.60
2018-07-26T08:27:50.028Z,77.00
2018-07-26T08:30:31.496Z,74.60
2018-07-26T08:33:12.929Z,72.30
2018-07-26T08:35:56.152Z,71.70
2018-07-26T08:38:37.800Z,71.50
2018-07-26T08:41:19.345Z,72.00
2018-07-26T08:44:01.696Z,72.20
2018-07-26T08:46:43.207Z,71.60
2018-07-26T08:49:25.605Z,70.90
2018-07-26T08:52:07.212Z,71.40
2018-07-26T08:54:49.107Z,70.10
2018-07-26T08:57:31.284Z,69.10
2018-07-26T09:00:16.285Z,68.80
2018-07-26T09:02:57.859Z,68.50
2018-07-26T09:05:39.214Z,68.70
2018-07-26T09:08:21.801Z,68.90
2018-07-26T09:11:04.557Z,69.00
2018-07-26T09:13:46.168Z,70.00
2018-07-26T09:16:27.706Z,70.60
2018-07-26T09:19:09.252Z,71.50
2018-07-26T09:21:51.513Z,71.90
2018-07-26T09:24:33.160Z,70.40
2018-07-26T09:27:14.504Z,69.30
2018-07-26T09:29:56.576Z,69.30
2018-07-26T09:32:39.877Z,70.00
2018-07-26T09:35:22.788Z,70.70
2018-07-26T09:38:04.362Z,71.60
2018-07-26T09:40:45.757Z,71.30
2018-07-26T09:43:27.177Z,71.70
2018-07-26T09:46:08.758Z,71.30
2018-07-26T09:48:51.791Z,70.70
2018-07-26T09:51:34.882Z,71.90
2018-07-26T09:54:17.255Z,72.10
2018-07-26T09:56:58.648Z,72.30
2018-07-26T09:59:41.613Z,72.90
2018-07-26T10:02:24.444Z,73.60
2018-07-26T10:05:06.737Z,74.90
2018-07-26T10:07:48.702Z,75.00
2018-07-26T10:10:31.716Z,74.00
2018-07-26T10:13:13.322Z,73.50
2018-07-26T10:15:55.632Z,75.00
2018-07-26T10:18:40.900Z,75.00
2018-07-26T10:21:24.526Z,76.00
2018-07-26T10:26:47.273Z,76.50
2018-07-26T10:29:28.771Z,73.60
2018-07-26T10:32:10.445Z,72.30
2018-07-26T10:34:54.529Z,73.10
2018-07-26T10:37:36.170Z,73.30
2018-07-26T10:40:17.625Z,72.40
2018-07-26T10:42:59.648Z,72.80
2018-07-26T10:45:41.140Z,71.90
2018-07-26T10:48:24.692Z,70.90
2018-07-26T10:51:06.149Z,69.70
2018-07-26T10:53:47.568Z,70.10
2018-07-26T10:56:29.314Z,70.70
2018-07-26T10:59:10.649Z,69.80
2018-07-26T11:01:54.492Z,69.40
2018-07-26T11:04:35.925Z,69.20
2018-07-26T11:07:17.444Z,69.80
2018-07-26T11:09:59.806Z,67.50
2018-07-26T11:12:41.189Z,66.40
2018-07-26T11:15:29.575Z,66.50
2018-07-26T11:18:11.517Z,67.00
2018-07-26T11:20:54.831Z,65.50
2018-07-26T11:23:36.213Z,65.60
2018-07-26T11:26:17.748Z,65.00
2018-07-26T11:28:59.041Z,64.80
2018-07-26T11:31:40.450Z,64.30
2018-07-26T11:37:05.113Z,63.50
2018-07-26T11:39:46.710Z,63.10
2018-07-26T11:42:28.059Z,62.10
2018-07-26T11:45:10.761Z,63.50
2018-07-26T11:47:54.728Z,63.70
2018-07-26T11:53:17.232Z,64.00
2018-07-26T11:55:58.577Z,63.60
2018-07-26T11:58:40.621Z,63.70
2018-07-26T12:01:23.276Z,63.80
2018-07-26T12:04:04.846Z,63.50
2018-07-26T12:06:46.316Z,64.60
2018-07-26T12:09:27.872Z,65.50
2018-07-26T12:12:10.546Z,62.50
2018-07-26T12:14:53.134Z,62.20
2018-07-26T12:17:34.650Z,62.90
2018-07-26T12:20:16.077Z,61.70
2018-07-26T12:22:57.548Z,61.40
2018-07-26T12:25:38.941Z,61.50
2018-07-26T12:28:21.828Z,61.60
2018-07-26T12:31:04.368Z,61.50
2018-07-26T12:33:45.645Z,61.40
2018-07-26T12:36:27.364Z,61.30
2018-07-26T12:39:11.448Z,61.30
2018-07-26T12:41:55.690Z,61.40
2018-07-26T12:44:37.016Z,61.40
2018-07-26T12:47:18.422Z,61.40
2018-07-26T12:49:59.987Z,61.80
2018-07-26T12:52:41.421Z,61.50
2018-07-26T12:55:24.631Z,62.20
2018-07-26T12:58:05.925Z,61.70
2018-07-26T13:00:47.206Z,62.70
2018-07-26T13:03:28.568Z,63.60
2018-07-26T13:06:09.948Z,64.30
2018-07-26T13:11:34.104Z,62.00
2018-07-26T13:14:15.517Z,61.80
2018-07-26T13:16:57.465Z,61.80
2018-07-26T13:19:38.902Z,61.70
2018-07-26T13:22:21.658Z,61.70
2018-07-26T13:25:03.029Z,61.70
2018-07-26T13:27:44.549Z,61.60
2018-07-26T13:30:26.687Z,61.40
2018-07-26T13:33:08.862Z,61.30
2018-07-26T13:35:50.985Z,62.80
2018-07-26T13:38:35.169Z,63.60
2018-07-26T13:41:19.429Z,65.00
2018-07-26T13:44:01.569Z,67.50
2018-07-26T13:46:42.964Z,69.10
2018-07-26T13:49:25.674Z,70.80
2018-07-26T13:52:07.482Z,70.30
2018-07-26T13:57:30.296Z,70.50
2018-07-26T14:00:14.492Z,72.10
2018-07-26T14:02:57.452Z,72.50
2018-07-26T14:05:39.012Z,73.00
2018-07-26T14:08:21.896Z,73.00
2018-07-26T14:11:03.331Z,73.60
2018-07-26T14:13:44.877Z,73.60
2018-07-26T14:16:27.255Z,73.90
2018-07-26T14:19:09.773Z,74.50
2018-07-26T14:21:51.887Z,74.60
2018-07-26T14:24:33.817Z,76.00
2018-07-26T14:27:15.272Z,78.30
2018-07-26T14:29:58.056Z,78.70
2018-07-26T14:32:39.499Z,78.90
2018-07-26T14:35:21.773Z,80.20
2018-07-26T14:38:03.108Z,81.00
2018-07-26T14:40:44.605Z,81.60
2018-07-26T14:43:27.242Z,81.50
2018-07-26T14:46:08.917Z,81.10
2018-07-26T14:48:50.459Z,81.40
2018-07-26T14:51:31.907Z,82.50
2018-07-26T14:54:14.140Z,81.60
2018-07-26T14:56:56.181Z,81.80
2018-07-26T14:59:37.558Z,81.90
2018-07-26T15:02:19.949Z,81.20
2018-07-26T15:05:01.845Z,80.70
2018-07-26T15:07:43.272Z,80.00
2018-07-26T15:10:26.028Z,79.70
2018-07-26T15:15:48.726Z,79.50
2018-07-26T15:18:30.577Z,80.00
2018-07-26T15:21:12.842Z,80.10
2018-07-26T15:23:55.787Z,80.90
2018-07-26T15:26:37.723Z,81.30
2018-07-26T15:29:19.316Z,81.70
2018-07-26T15:32:01.399Z,82.10
2018-07-26T15:34:43.165Z,81.40
2018-07-26T15:37:25.620Z,81.20
2018-07-26T15:40:08.065Z,80.90
2018-07-26T15:42:49.925Z,80.70
2018-07-26T15:45:32.198Z,80.80
2018-07-26T15:48:13.774Z,81.10
2018-07-26T15:50:59.120Z,80.50
2018-07-26T15:53:41.057Z,80.20
2018-07-26T15:56:23.375Z,80.00
2018-07-26T15:59:04.988Z,79.20
2018-07-26T16:01:46.485Z,78.50
2018-07-26T16:07:08.985Z,78.20
2018-07-26T16:09:51.889Z,78.30
2018-07-26T16:12:46.098Z,78.20
2018-07-26T16:15:30.313Z,77.80
2018-07-26T16:18:15.245Z,77.80
2018-07-26T16:20:57.356Z,78.10
2018-07-26T16:23:41.881Z,78.40
2018-07-26T16:26:23.928Z,78.20
2018-07-26T16:29:06.545Z,78.70
2018-07-26T16:31:48.689Z,77.80
2018-07-26T16:34:31.274Z,77.70
2018-07-26T16:37:13.090Z,77.90
2018-07-26T16:39:54.768Z,78.40
2018-07-26T16:42:36.179Z,78.20
2018-07-26T16:45:17.589Z,78.20
2018-07-26T16:47:59.048Z,78.40
2018-07-26T16:50:40.804Z,78.70
2018-07-26T16:53:22.591Z,78.90
2018-07-26T16:56:05.475Z,78.70
2018-07-26T16:58:47.475Z,78.80
2018-07-26T17:01:28.926Z,77.60
2018-07-26T17:04:10.411Z,77.50
2018-07-26T17:06:52.839Z,76.60
2018-07-26T17:09:34.900Z,76.30
2018-07-26T17:12:16.463Z,76.90
2018-07-26T17:14:57.959Z,77.40
2018-07-26T17:17:52.983Z,77.50
2018-07-26T17:20:38.236Z,77.40
2018-07-26T17:23:20.643Z,77.50
2018-07-26T17:26:04.128Z,78.20
2018-07-26T17:28:45.630Z,78.70
2018-07-26T17:31:27.148Z,78.40
2018-07-26T17:34:08.640Z,77.60
2018-07-26T17:36:50.953Z,77.40
2018-07-26T17:39:33.614Z,77.60
2018-07-26T17:42:15.245Z,77.50
2018-07-26T17:44:57.190Z,77.80
2018-07-26T17:47:38.760Z,78.20
2018-07-26T17:50:20.677Z,78.70
2018-07-26T17:53:18.663Z,79.40
2018-07-26T17:56:00.212Z,79.70
2018-07-26T17:58:42.987Z,80.20
2018-07-26T18:01:24.384Z,80.90
2018-07-26T18:04:06.496Z,81.50
2018-07-26T18:06:47.954Z,82.00
2018-07-26T18:09:29.369Z,82.00
2018-07-26T18:12:11.459Z,82.70
2018-07-26T18:14:53.023Z,83.50
2018-07-26T18:17:35.847Z,84.20
2018-07-26T18:20:17.425Z,85.00
2018-07-26T18:22:58.999Z,85.50
2018-07-26T18:25:41.351Z,86.20
2018-07-26T18:28:22.801Z,88.40
2018-07-26T18:31:05.390Z,87.10
2018-07-26T18:33:48.244Z,87.20
2018-07-26T18:36:29.544Z,87.10
2018-07-26T18:39:13.433Z,87.10
2018-07-26T18:41:55.093Z,87.00
2018-07-26T18:44:37.053Z,87.00
2018-07-26T18:47:19.812Z,87.10
2018-07-26T18:50:02.423Z,87.00
2018-07-26T18:52:44.047Z,87.00
2018-07-26T18:55:25.452Z,87.00
2018-07-26T18:58:07.412Z,86.90
2018-07-26T19:00:49.700Z,86.80
2018-07-26T19:03:32.347Z,86.80
2018-07-26T19:06:14.345Z,86.70
2018-07-26T19:08:57.675Z,86.70
2018-07-26T19:11:42.209Z,86.70
2018-07-26T19:14:23.993Z,86.60
2018-07-26T19:17:06.548Z,86.50
2018-07-26T19:20:20.365Z,86.80
2018-07-26T19:23:01.909Z,87.80
2018-07-26T19:25:45.089Z,88.00
2018-07-26T19:28:27.060Z,88.20
2018-07-26T19:31:09.568Z,87.80
2018-07-26T19:33:51.592Z,87.70
2018-07-26T19:36:33.055Z,87.60
2018-07-26T19:39:14.760Z,87.80
2018-07-26T19:41:56.997Z,87.70
2018-07-26T19:44:40.209Z,87.80
2018-07-26T19:47:21.695Z,87.80
2018-07-26T19:50:03.297Z,87.40
2018-07-26T19:52:46.128Z,87.10
2018-07-26T19:55:27.613Z,87.30
2018-07-26T19:58:09.989Z,87.10
2018-07-26T20:01:05.560Z,87.20
2018-07-26T20:03:48.090Z,87.00
2018-07-26T20:06:29.548Z,87.30
2018-07-26T20:09:11.936Z,87.40
2018-07-26T20:12:00.312Z,87.50
2018-07-26T20:20:34.146Z,87.70
2018-07-26T20:23:16.534Z,87.90
2018-07-26T20:25:57.977Z,87.90
2018-07-26T20:28:43.944Z,88.10
2018-07-26T20:31:26.364Z,88.20
2018-07-26T20:34:08.001Z,88.70
2018-07-26T20:36:49.594Z,88.30
2018-07-26T20:39:31.011Z,88.40
2018-07-26T20:42:13.563Z,88.70
2018-07-26T20:44:54.973Z,88.80
2018-07-26T20:47:36.379Z,88.80
2018-07-26T20:50:18.833Z,88.90
2018-07-26T20:53:00.498Z,89.10
2018-07-26T20:55:41.958Z,89.20
2018-07-26T20:58:24.315Z,89.60
2018-07-26T21:01:05.886Z,89.60
2018-07-26T21:03:48.498Z,89.30
2018-07-26T21:06:30.060Z,89.10
2018-07-26T21:09:13.753Z,89.60
2018-07-26T21:11:55.335Z,89.90
2018-07-26T21:14:36.821Z,89.80
2018-07-26T21:17:18.966Z,89.90
2018-07-26T21:20:03.483Z,90.10
2018-07-26T21:22:46.661Z,90.00
2018-07-26T21:25:28.228Z,90.20
2018-07-26T21:28:09.853Z,90.20
2018-07-26T21:30:52.396Z,90.20
2018-07-26T21:33:33.939Z,90.30
2018-07-26T21:36:16.772Z,90.90
2018-07-26T21:38:58.222Z,90.40
2018-07-26T21:41:40.351Z,90.50
2018-07-26T21:44:21.746Z,90.40
2018-07-26T21:47:03.573Z,90.50
2018-07-26T21:49:49.935Z,90.50
2018-07-26T21:52:31.455Z,90.40
2018-07-26T21:55:13.179Z,90.40
2018-07-26T21:57:55.140Z,90.20
2018-07-26T22:00:42.071Z,90.10
2018-07-26T22:03:23.676Z,90.30
2018-07-26T22:06:06.488Z,90.50
2018-07-26T22:08:49.888Z,90.60
2018-07-26T22:11:31.425Z,90.70
2018-07-26T22:14:12.812Z,90.60
2018-07-26T22:16:55.005Z,90.70
2018-07-26T22:19:36.440Z,90.70
2018-07-26T22:22:19.686Z,90.80
2018-07-26T22:27:42.922Z,90.80
2018-07-26T22:30:26.213Z,90.80
2018-07-26T22:33:08.692Z,90.90
2018-07-26T22:35:51.038Z,91.00
2018-07-26T22:38:33.093Z,91.00
2018-07-26T22:41:15.137Z,91.00
2018-07-26T22:43:57.730Z,91.10
2018-07-26T22:49:22.602Z,90.70
2018-07-26T22:52:04.111Z,91.00
2018-07-26T22:54:45.545Z,91.20
2018-07-26T22:57:27.334Z,91.40
2018-07-26T23:00:09.194Z,91.40
2018-07-26T23:02:52.507Z,91.20
2018-07-26T23:05:33.917Z,91.10
2018-07-26T23:08:16.653Z,91.30
2018-07-26T23:10:58.473Z,91.40
2018-07-26T23:13:40.000Z,91.30
2018-07-26T23:16:21.999Z,91.30
2018-07-26T23:19:04.991Z,91.20
2018-07-26T23:21:48.651Z,91.20
2018-07-26T23:24:30.922Z,91.50
2018-07-26T23:27:12.709Z,91.70
2018-07-26T23:29:55.113Z,91.80
2018-07-26T23:32:36.521Z,91.70
2018-07-26T23:35:17.979Z,91.80
2018-07-26T23:37:59.613Z,91.80
2018-07-26T23:40:41.954Z,91.80
2018-07-26T23:43:24.878Z,91.80
2018-07-26T23:46:07.309Z,92.00
2018-07-26T23:48:51.034Z,92.10
2018-07-26T23:51:33.396Z,91.70
2018-07-26T23:54:14.876Z,91.50
2018-07-26T23:56:57.196Z,91.50
2018-07-26T23:59:38.676Z,91.80
